sensor_id;sensor_type;location;lat;lon;timestamp;pressure;altitude;pressure_sealevel;temperature;humidity
47536;BME280;33278;50.826;9.030;2022-07-12T00:00:56;99422.53;;;21.08;56.41
47536;BME280;33278;50.826;9.030;2022-07-12T00:03:27;99422.53;;;21.08;56.68
47536;BME280;33278;50.826;9.030;2022-07-12T00:05:57;99422.53;;;21.08;56.75
47536;BME280;33278;50.826;9.030;2022-07-12T00:08:28;99421.75;;;21.07;56.80
47536;BME280;33278;50.826;9.030;2022-07-12T00:10:58;99422.53;;;21.08;56.64
47536;BME280;33278;50.826;9.030;2022-07-12T00:13:28;99419.03;;;21.07;56.65
47536;BME280;33278;50.826;9.030;2022-07-12T00:16:00;99421.75;;;21.07;56.80
47536;BME280;33278;50.826;9.030;2022-07-12T00:18:30;99415.53;;;21.07;56.93
47536;BME280;33278;50.826;9.030;2022-07-12T00:21:00;99420.13;;;21.06;56.57
47536;BME280;33278;50.826;9.030;2022-07-12T00:23:31;99415.53;;;21.07;56.90
47536;BME280;33278;50.826;9.030;2022-07-12T00:26:01;99435.28;;;21.07;57.73
47536;BME280;33278;50.826;9.030;2022-07-12T00:28:34;99425.56;;;21.06;56.90
47536;BME280;33278;50.826;9.030;2022-07-12T00:31:05;99427.16;;;21.07;56.85
47536;BME280;33278;50.826;9.030;2022-07-12T00:33:35;99423.66;;;21.07;56.71
47536;BME280;33278;50.826;9.030;2022-07-12T00:36:06;99422.84;;;21.06;57.04
47536;BME280;33278;50.826;9.030;2022-07-12T00:38:36;99423.94;;;21.05;57.30
47536;BME280;33278;50.826;9.030;2022-07-12T00:41:06;99422.84;;;21.06;57.01
47536;BME280;33278;50.826;9.030;2022-07-12T00:43:37;99414.72;;;21.06;56.96
47536;BME280;33278;50.826;9.030;2022-07-12T00:46:07;99414.72;;;21.06;56.78
47536;BME280;33278;50.826;9.030;2022-07-12T00:48:38;99419.03;;;21.07;56.92
47536;BME280;33278;50.826;9.030;2022-07-12T00:51:09;99419.34;;;21.06;56.95
47536;BME280;33278;50.826;9.030;2022-07-12T00:53:40;99417.44;;;21.06;56.95
47536;BME280;33278;50.826;9.030;2022-07-12T00:56:12;99408.50;;;21.06;57.10
47536;BME280;33278;50.826;9.030;2022-07-12T00:58:43;99406.59;;;21.06;57.28
47536;BME280;33278;50.826;9.030;2022-07-12T01:01:14;99411.22;;;21.06;57.45
47536;BME280;33278;50.826;9.030;2022-07-12T01:03:44;99410.13;;;21.07;57.18
47536;BME280;33278;50.826;9.030;2022-07-12T01:06:16;99415.81;;;21.05;57.09
47536;BME280;33278;50.826;9.030;2022-07-12T01:08:47;99408.50;;;21.06;58.43
47536;BME280;33278;50.826;9.030;2022-07-12T01:11:18;99410.41;;;21.05;57.50
47536;BME280;33278;50.826;9.030;2022-07-12T01:13:48;99400.66;;;21.04;57.11
47536;BME280;33278;50.826;9.030;2022-07-12T01:16:21;99406.09;;;21.04;58.71
47536;BME280;33278;50.826;9.030;2022-07-12T01:18:52;99399.09;;;21.03;58.50
47536;BME280;33278;50.826;9.030;2022-07-12T01:21:24;99404.78;;;21.01;57.32
47536;BME280;33278;50.826;9.030;2022-07-12T01:23:57;99407.22;;;21.03;57.24
47536;BME280;33278;50.826;9.030;2022-07-12T01:26:28;99409.09;;;21.02;57.64
47536;BME280;33278;50.826;9.030;2022-07-12T01:28:59;99404.50;;;21.03;57.58
47536;BME280;33278;50.826;9.030;2022-07-12T01:31:29;99400.97;;;21.02;58.55
47536;BME280;33278;50.826;9.030;2022-07-12T01:34:00;99405.59;;;21.02;58.37
47536;BME280;33278;50.826;9.030;2022-07-12T01:36:31;99401.28;;;21.01;58.62
47536;BME280;33278;50.826;9.030;2022-07-12T01:39:02;99398.56;;;21.01;59.78
47536;BME280;33278;50.826;9.030;2022-07-12T01:41:33;99405.59;;;21.02;59.22
47536;BME280;33278;50.826;9.030;2022-07-12T01:44:03;99402.38;;;21.00;59.45
47536;BME280;33278;50.826;9.030;2022-07-12T01:46:33;99400.47;;;21.00;58.16
47536;BME280;33278;50.826;9.030;2022-07-12T01:49:04;99405.41;;;20.98;59.51
47536;BME280;33278;50.826;9.030;2022-07-12T01:51:34;99411.63;;;20.99;59.48
47536;BME280;33278;50.826;9.030;2022-07-12T01:54:05;99408.91;;;20.99;59.99
47536;BME280;33278;50.826;9.030;2022-07-12T01:56:36;99402.69;;;20.98;60.35
47536;BME280;33278;50.826;9.030;2022-07-12T01:59:06;99396.47;;;20.98;60.58
47536;BME280;33278;50.826;9.030;2022-07-12T02:01:38;99399.78;;;20.95;60.39
47536;BME280;33278;50.826;9.030;2022-07-12T02:04:08;99405.22;;;20.95;59.59
47536;BME280;33278;50.826;9.030;2022-07-12T02:06:38;99401.09;;;20.97;58.28
47536;BME280;33278;50.826;9.030;2022-07-12T02:09:09;99406.19;;;20.99;59.56
47536;BME280;33278;50.826;9.030;2022-07-12T02:11:40;99400.56;;;20.95;60.73
47536;BME280;33278;50.826;9.030;2022-07-12T02:14:11;99400.88;;;20.94;60.82
47536;BME280;33278;50.826;9.030;2022-07-12T02:16:44;99394.66;;;20.93;60.59
47536;BME280;33278;50.826;9.030;2022-07-12T02:19:15;99399.28;;;20.93;60.95
47536;BME280;33278;50.826;9.030;2022-07-12T02:21:45;99399.78;;;20.95;60.88
47536;BME280;33278;50.826;9.030;2022-07-12T02:24:16;99398.19;;;20.94;60.84
47536;BME280;33278;50.826;9.030;2022-07-12T02:26:46;99390.34;;;20.92;61.06
47536;BME280;33278;50.826;9.030;2022-07-12T02:29:16;99396.56;;;20.93;61.05
47536;BME280;33278;50.826;9.030;2022-07-12T02:31:47;99393.03;;;20.92;60.70
47536;BME280;33278;50.826;9.030;2022-07-12T02:34:17;99387.63;;;20.92;60.65
47536;BME280;33278;50.826;9.030;2022-07-12T02:36:47;99383.03;;;20.93;60.82
47536;BME280;33278;50.826;9.030;2022-07-12T02:39:17;99377.59;;;20.93;60.65
47536;BME280;33278;50.826;9.030;2022-07-12T02:41:48;99383.81;;;20.93;60.37
47536;BME280;33278;50.826;9.030;2022-07-12T02:44:18;99380.81;;;20.95;60.17
47536;BME280;33278;50.826;9.030;2022-07-12T02:46:49;99385.75;;;21.07;59.68
47536;BME280;33278;50.826;9.030;2022-07-12T02:49:20;99389.13;;;21.12;59.47
47536;BME280;33278;50.826;9.030;2022-07-12T02:51:50;99389.34;;;21.02;59.03
47536;BME280;33278;50.826;9.030;2022-07-12T02:54:20;99395.47;;;20.94;58.77
47536;BME280;33278;50.826;9.030;2022-07-12T02:56:50;99399.66;;;20.86;57.47
47536;BME280;33278;50.826;9.030;2022-07-12T02:59:21;99395.25;;;21.04;59.76
47536;BME280;33278;50.826;9.030;2022-07-12T03:01:51;99400.59;;;21.09;59.82
47536;BME280;33278;50.826;9.030;2022-07-12T03:04:21;99407.59;;;20.96;60.00
47536;BME280;33278;50.826;9.030;2022-07-12T03:06:52;99414.22;;;20.90;59.44
47536;BME280;33278;50.826;9.030;2022-07-12T03:09:22;99414.03;;;20.86;59.46
47536;BME280;33278;50.826;9.030;2022-07-12T03:11:52;99412.41;;;20.85;59.50
47536;BME280;33278;50.826;9.030;2022-07-12T03:14:22;99411.91;;;20.83;59.51
47536;BME280;33278;50.826;9.030;2022-07-12T03:16:53;99414.63;;;20.83;59.45
47536;BME280;33278;50.826;9.030;2022-07-12T03:19:23;99419.25;;;20.83;59.53
47536;BME280;33278;50.826;9.030;2022-07-12T03:21:53;99414.94;;;20.82;59.75
47536;BME280;33278;50.826;9.030;2022-07-12T03:24:24;99427.97;;;20.80;59.45
47536;BME280;33278;50.826;9.030;2022-07-12T03:26:54;99433.38;;;20.80;59.52
47536;BME280;33278;50.826;9.030;2022-07-12T03:29:24;99425.25;;;20.80;59.24
47536;BME280;33278;50.826;9.030;2022-07-12T03:31:54;99427.16;;;20.79;58.96
47536;BME280;33278;50.826;9.030;2022-07-12T03:34:25;99427.16;;;20.79;59.40
47536;BME280;33278;50.826;9.030;2022-07-12T03:36:55;99421.25;;;20.77;59.21
47536;BME280;33278;50.826;9.030;2022-07-12T03:39:26;99420.41;;;20.77;59.19
47536;BME280;33278;50.826;9.030;2022-07-12T03:41:56;99425.03;;;20.76;59.07
47536;BME280;33278;50.826;9.030;2022-07-12T03:44:26;99423.94;;;20.77;59.17
47536;BME280;33278;50.826;9.030;2022-07-12T03:46:57;99425.03;;;20.76;59.21
47536;BME280;33278;50.826;9.030;2022-07-12T03:49:28;99427.75;;;20.76;59.04
47536;BME280;33278;50.826;9.030;2022-07-12T03:51:58;99426.44;;;20.74;59.11
47536;BME280;33278;50.826;9.030;2022-07-12T03:54:29;99437.78;;;20.76;59.06
47536;BME280;33278;50.826;9.030;2022-07-12T03:56:59;99434.25;;;20.75;59.02
47536;BME280;33278;50.826;9.030;2022-07-12T03:59:45;99439.69;;;20.75;58.82
47536;BME280;33278;50.826;9.030;2022-07-12T04:02:15;99436.19;;;20.75;58.69
47536;BME280;33278;50.826;9.030;2022-07-12T04:04:46;99437.56;;;20.72;58.84
47536;BME280;33278;50.826;9.030;2022-07-12T04:07:16;99443.78;;;20.73;58.75
47536;BME280;33278;50.826;9.030;2022-07-12T04:09:47;99451.09;;;20.72;58.93
47536;BME280;33278;50.826;9.030;2022-07-12T04:12:18;99457.34;;;20.73;58.81
47536;BME280;33278;50.826;9.030;2022-07-12T04:14:48;99452.19;;;20.71;58.77
47536;BME280;33278;50.826;9.030;2022-07-12T04:17:18;99463.03;;;20.71;58.67
47536;BME280;33278;50.826;9.030;2022-07-12T04:19:49;99460.59;;;20.69;58.87
47536;BME280;33278;50.826;9.030;2022-07-12T04:22:19;99466.53;;;20.71;58.73
47536;BME280;33278;50.826;9.030;2022-07-12T04:24:50;99466.00;;;20.69;58.78
47536;BME280;33278;50.826;9.030;2022-07-12T04:27:20;99458.72;;;20.70;58.67
47536;BME280;33278;50.826;9.030;2022-07-12T04:29:50;99463.91;;;20.66;58.61
47536;BME280;33278;50.826;9.030;2022-07-12T04:32:20;99470.63;;;20.69;58.79
47536;BME280;33278;50.826;9.030;2022-07-12T04:34:51;99463.91;;;20.66;58.57
47536;BME280;33278;50.826;9.030;2022-07-12T04:37:21;99471.53;;;20.64;58.65
47536;BME280;33278;50.826;9.030;2022-07-12T04:39:51;99468.03;;;20.64;58.50
47536;BME280;33278;50.826;9.030;2022-07-12T04:42:22;99475.84;;;20.65;58.40
47536;BME280;33278;50.826;9.030;2022-07-12T04:44:53;99475.84;;;20.65;58.47
47536;BME280;33278;50.826;9.030;2022-07-12T04:47:23;99477.25;;;20.63;58.44
47536;BME280;33278;50.826;9.030;2022-07-12T04:52:24;99478.66;;;20.60;58.28
47536;BME280;33278;50.826;9.030;2022-07-12T04:54:54;99495.69;;;20.61;58.48
47536;BME280;33278;50.826;9.030;2022-07-12T04:57:24;99491.09;;;20.61;58.24
47536;BME280;33278;50.826;9.030;2022-07-12T04:59:55;99491.09;;;20.61;58.10
47536;BME280;33278;50.826;9.030;2022-07-12T05:02:25;99489.47;;;20.60;57.91
47536;BME280;33278;50.826;9.030;2022-07-12T05:04:56;99488.66;;;20.60;57.22
47536;BME280;33278;50.826;9.030;2022-07-12T05:07:26;99495.16;;;20.59;58.17
47536;BME280;33278;50.826;9.030;2022-07-12T05:09:57;99496.00;;;20.59;57.54
47536;BME280;33278;50.826;9.030;2022-07-12T05:12:27;99496.19;;;20.63;57.81
47536;BME280;33278;50.826;9.030;2022-07-12T05:14:58;99497.81;;;20.64;58.05
47536;BME280;33278;50.826;9.030;2022-07-12T05:17:28;99506.72;;;20.64;57.75
47536;BME280;33278;50.826;9.030;2022-07-12T05:19:58;99503.81;;;20.61;57.78
47536;BME280;33278;50.826;9.030;2022-07-12T05:22:28;99504.91;;;20.60;57.42
47536;BME280;33278;50.826;9.030;2022-07-12T05:24:59;99509.22;;;20.61;57.19
47536;BME280;33278;50.826;9.030;2022-07-12T05:27:29;99505.72;;;20.60;57.09
47536;BME280;33278;50.826;9.030;2022-07-12T05:32:31;99500.31;;;20.60;57.65
47536;BME280;33278;50.826;9.030;2022-07-12T05:35:01;99507.03;;;20.63;57.58
47536;BME280;33278;50.826;9.030;2022-07-12T05:37:32;99495.69;;;20.61;57.86
47536;BME280;33278;50.826;9.030;2022-07-12T05:40:03;99499.22;;;20.61;57.57
47536;BME280;33278;50.826;9.030;2022-07-12T05:42:33;99501.09;;;20.61;57.88
47536;BME280;33278;50.826;9.030;2022-07-12T05:45:05;99501.09;;;20.61;57.85
47536;BME280;33278;50.826;9.030;2022-07-12T05:47:35;99498.69;;;20.59;57.79
47536;BME280;33278;50.826;9.030;2022-07-12T05:50:06;99495.16;;;20.59;57.76
47536;BME280;33278;50.826;9.030;2022-07-12T05:52:36;99501.41;;;20.59;57.80
47536;BME280;33278;50.826;9.030;2022-07-12T05:55:25;99510.31;;;20.60;58.00
47536;BME280;33278;50.826;9.030;2022-07-12T05:57:56;99513.31;;;20.58;57.69
47536;BME280;33278;50.826;9.030;2022-07-12T06:00:26;99513.31;;;20.58;57.40
47536;BME280;33278;50.826;9.030;2022-07-12T06:02:56;99517.66;;;20.59;57.58
47536;BME280;33278;50.826;9.030;2022-07-12T06:05:27;99516.81;;;20.59;57.20
47536;BME280;33278;50.826;9.030;2022-07-12T06:07:57;99519.25;;;20.60;57.49
47536;BME280;33278;50.826;9.030;2022-07-12T06:10:27;99520.06;;;20.61;57.33
47536;BME280;33278;50.826;9.030;2022-07-12T06:12:58;99526.56;;;20.60;57.77
47536;BME280;33278;50.826;9.030;2022-07-12T06:15:28;99535.78;;;20.59;57.26
47536;BME280;33278;50.826;9.030;2022-07-12T06:17:59;99541.72;;;20.61;57.21
47536;BME280;33278;50.826;9.030;2022-07-12T06:20:29;99544.72;;;20.59;57.20
47536;BME280;33278;50.826;9.030;2022-07-12T06:23:00;99543.63;;;20.60;57.12
47536;BME280;33278;50.826;9.030;2022-07-12T06:25:30;99550.94;;;20.60;57.35
47536;BME280;33278;50.826;9.030;2022-07-12T06:28:01;99543.63;;;20.60;57.28
47536;BME280;33278;50.826;9.030;2022-07-12T06:33:02;99551.44;;;20.62;57.09
47536;BME280;33278;50.826;9.030;2022-07-12T06:35:32;99547.13;;;20.61;57.13
47536;BME280;33278;50.826;9.030;2022-07-12T06:38:04;99540.91;;;20.60;57.30
47536;BME280;33278;50.826;9.030;2022-07-12T06:40:34;99545.81;;;20.58;56.74
47536;BME280;33278;50.826;9.030;2022-07-12T06:43:11;99546.91;;;20.57;57.01
47536;BME280;33278;50.826;9.030;2022-07-12T06:45:43;99540.41;;;20.58;57.03
47536;BME280;33278;50.826;9.030;2022-07-12T06:48:13;99548.53;;;20.58;57.00
47536;BME280;33278;50.826;9.030;2022-07-12T06:50:44;99545.50;;;20.60;57.20
47536;BME280;33278;50.826;9.030;2022-07-12T06:53:14;99535.00;;;20.58;57.51
47536;BME280;33278;50.826;9.030;2022-07-12T06:55:45;99536.59;;;20.59;57.15
47536;BME280;33278;50.826;9.030;2022-07-12T06:58:15;99536.88;;;20.58;57.23
47536;BME280;33278;50.826;9.030;2022-07-12T07:00:46;99532.78;;;20.60;57.40
47536;BME280;33278;50.826;9.030;2022-07-12T07:03:16;99536.28;;;20.61;57.30
47536;BME280;33278;50.826;9.030;2022-07-12T07:05:46;99533.59;;;20.61;57.13
47536;BME280;33278;50.826;9.030;2022-07-12T07:08:17;99534.69;;;20.60;57.25
47536;BME280;33278;50.826;9.030;2022-07-12T07:10:47;99533.88;;;20.59;57.00
47536;BME280;33278;50.826;9.030;2022-07-12T07:13:17;99534.69;;;20.60;57.12
47536;BME280;33278;50.826;9.030;2022-07-12T07:15:47;99530.88;;;20.61;57.13
47536;BME280;33278;50.826;9.030;2022-07-12T07:18:18;99536.28;;;20.61;57.20
47536;BME280;33278;50.826;9.030;2022-07-12T07:20:48;99539.81;;;20.61;57.14
47536;BME280;33278;50.826;9.030;2022-07-12T07:23:18;99544.94;;;20.63;57.17
47536;BME280;33278;50.826;9.030;2022-07-12T07:25:49;99546.03;;;20.62;56.93
47536;BME280;33278;50.826;9.030;2022-07-12T07:28:19;99549.84;;;20.61;57.08
47536;BME280;33278;50.826;9.030;2022-07-12T07:30:50;99548.72;;;20.62;57.28
47536;BME280;33278;50.826;9.030;2022-07-12T07:33:24;99549.84;;;20.61;57.09
47536;BME280;33278;50.826;9.030;2022-07-12T07:35:55;99548.72;;;20.62;57.15
47536;BME280;33278;50.826;9.030;2022-07-12T07:38:25;99544.41;;;20.61;56.88
47536;BME280;33278;50.826;9.030;2022-07-12T07:40:55;99547.13;;;20.61;56.27
47536;BME280;33278;50.826;9.030;2022-07-12T07:45:56;99551.97;;;20.64;56.87
47536;BME280;33278;50.826;9.030;2022-07-12T07:48:26;99547.34;;;20.64;56.89
47536;BME280;33278;50.826;9.030;2022-07-12T07:50:57;99541.72;;;20.61;56.66
47536;BME280;33278;50.826;9.030;2022-07-12T07:53:27;99554.66;;;20.64;56.80
47536;BME280;33278;50.826;9.030;2022-07-12T07:55:57;99547.13;;;20.61;56.40
47536;BME280;33278;50.826;9.030;2022-07-12T07:58:28;99552.53;;;20.61;56.61
47536;BME280;33278;50.826;9.030;2022-07-12T08:00:58;99558.47;;;20.63;56.62
47536;BME280;33278;50.826;9.030;2022-07-12T08:03:28;99560.88;;;20.64;56.77
47536;BME280;33278;50.826;9.030;2022-07-12T08:05:59;99562.78;;;20.64;56.68
47536;BME280;33278;50.826;9.030;2022-07-12T08:08:30;99566.28;;;20.64;56.49
47536;BME280;33278;50.826;9.030;2022-07-12T08:11:01;99559.03;;;20.60;56.34
47536;BME280;33278;50.826;9.030;2022-07-12T08:13:31;99557.44;;;20.59;56.13
47536;BME280;33278;50.826;9.030;2022-07-12T08:16:01;99564.78;;;20.58;56.01
47536;BME280;33278;50.826;9.030;2022-07-12T08:18:31;99565.28;;;20.60;56.39
47536;BME280;33278;50.826;9.030;2022-07-12T08:21:02;99564.19;;;20.61;55.87
47536;BME280;33278;50.826;9.030;2022-07-12T08:23:32;99565.50;;;20.64;56.49
47536;BME280;33278;50.826;9.030;2022-07-12T08:26:03;99563.66;;;20.59;55.98
47536;BME280;33278;50.826;9.030;2022-07-12T08:28:33;99563.38;;;20.61;56.43
47536;BME280;33278;50.826;9.030;2022-07-12T08:31:04;99570.41;;;20.62;56.43
47536;BME280;33278;50.826;9.030;2022-07-12T08:33:35;99567.16;;;20.60;55.91
47536;BME280;33278;50.826;9.030;2022-07-12T08:36:05;99566.06;;;20.61;55.90
47536;BME280;33278;50.826;9.030;2022-07-12T08:38:37;99569.88;;;20.60;55.82
47536;BME280;33278;50.826;9.030;2022-07-12T08:41:11;99567.16;;;20.60;55.82
47536;BME280;33278;50.826;9.030;2022-07-12T08:43:41;99559.88;;;20.60;55.99
47536;BME280;33278;50.826;9.030;2022-07-12T08:46:13;99551.66;;;20.65;56.48
47536;BME280;33278;50.826;9.030;2022-07-12T08:48:44;99553.34;;;20.61;56.53
47536;BME280;33278;50.826;9.030;2022-07-12T08:51:18;99555.25;;;20.61;56.22
47536;BME280;33278;50.826;9.030;2022-07-12T08:54:05;99549.31;;;20.59;56.13
47536;BME280;33278;50.826;9.030;2022-07-12T08:56:38;99555.81;;;20.58;55.74
47536;BME280;33278;50.826;9.030;2022-07-12T08:59:19;99553.94;;;20.58;55.70
47536;BME280;33278;50.826;9.030;2022-07-12T09:01:52;99550.41;;;20.58;56.10
47536;BME280;33278;50.826;9.030;2022-07-12T09:04:25;99562.84;;;20.59;56.11
47536;BME280;33278;50.826;9.030;2022-07-12T09:06:55;99559.34;;;20.58;55.86
47536;BME280;33278;50.826;9.030;2022-07-12T09:09:26;99566.97;;;20.56;56.12
47536;BME280;33278;50.826;9.030;2022-07-12T09:11:58;99562.38;;;20.56;56.38
47536;BME280;33278;50.826;9.030;2022-07-12T09:14:28;99562.06;;;20.58;56.30
47536;BME280;33278;50.826;9.030;2022-07-12T09:17:03;99555.81;;;20.58;55.90
47536;BME280;33278;50.826;9.030;2022-07-12T09:19:35;99554.25;;;20.56;55.79
47536;BME280;33278;50.826;9.030;2022-07-12T09:22:15;99548.81;;;20.56;55.97
47536;BME280;33278;50.826;9.030;2022-07-12T09:24:48;99545.81;;;20.58;56.32
47536;BME280;33278;50.826;9.030;2022-07-12T09:27:24;99544.19;;;20.57;56.34
47536;BME280;33278;50.826;9.030;2022-07-12T09:29:55;99544.72;;;20.59;56.28
47536;BME280;33278;50.826;9.030;2022-07-12T09:32:26;99542.00;;;20.59;56.46
47536;BME280;33278;50.826;9.030;2022-07-12T09:35:14;99540.09;;;20.60;56.30
47536;BME280;33278;50.826;9.030;2022-07-12T09:38:13;99540.97;;;20.55;55.82
47536;BME280;33278;50.826;9.030;2022-07-12T09:40:43;99538.00;;;20.56;56.19
47536;BME280;33278;50.826;9.030;2022-07-12T09:43:14;99543.41;;;20.56;56.06
47536;BME280;33278;50.826;9.030;2022-07-12T09:45:47;99546.91;;;20.57;56.11
47536;BME280;33278;50.826;9.030;2022-07-12T09:48:19;99544.50;;;20.55;55.95
47536;BME280;33278;50.826;9.030;2022-07-12T09:50:51;99552.03;;;20.59;56.04
47536;BME280;33278;50.826;9.030;2022-07-12T09:53:27;99548.31;;;20.54;55.84
47536;BME280;33278;50.826;9.030;2022-07-12T09:55:58;99545.31;;;20.56;55.94
47536;BME280;33278;50.826;9.030;2022-07-12T09:58:40;99545.31;;;20.56;55.86
47536;BME280;33278;50.826;9.030;2022-07-12T10:01:11;99548.81;;;20.56;56.05
47536;BME280;33278;50.826;9.030;2022-07-12T10:03:43;99552.84;;;20.59;56.02
47536;BME280;33278;50.826;9.030;2022-07-12T10:06:17;99551.53;;;20.56;55.76
47536;BME280;33278;50.826;9.030;2022-07-12T10:08:52;99560.44;;;20.57;56.09
47536;BME280;33278;50.826;9.030;2022-07-12T10:11:24;99554.72;;;20.59;56.12
47536;BME280;33278;50.826;9.030;2022-07-12T10:13:55;99552.91;;;20.54;55.48
47536;BME280;33278;50.826;9.030;2022-07-12T10:16:26;99549.63;;;20.57;56.05
47536;BME280;33278;50.826;9.030;2022-07-12T10:21:56;99551.22;;;20.58;56.25
47536;BME280;33278;50.826;9.030;2022-07-12T10:29:44;99553.41;;;20.56;55.71
47536;BME280;33278;50.826;9.030;2022-07-12T10:32:35;99556.66;;;20.58;55.83
47536;BME280;33278;50.826;9.030;2022-07-12T10:35:19;99552.84;;;20.59;56.15
47536;BME280;33278;50.826;9.030;2022-07-12T10:40:43;99550.41;;;20.58;55.89
47536;BME280;33278;50.826;9.030;2022-07-12T10:43:16;99542.81;;;20.60;55.98
47536;BME280;33278;50.826;9.030;2022-07-12T10:45:47;99541.81;;;20.55;55.24
47536;BME280;33278;50.826;9.030;2022-07-12T10:48:23;99535.56;;;20.55;55.78
47536;BME280;33278;50.826;9.030;2022-07-12T10:50:55;99524.75;;;20.55;55.62
47536;BME280;33278;50.826;9.030;2022-07-12T10:53:31;99518.53;;;20.54;55.36
47536;BME280;33278;50.826;9.030;2022-07-12T10:58:36;99519.63;;;20.53;55.06
47536;BME280;33278;50.826;9.030;2022-07-12T11:01:19;99519.03;;;20.56;55.51
47536;BME280;33278;50.826;9.030;2022-07-12T11:03:52;99510.09;;;20.56;55.49
47536;BME280;33278;50.826;9.030;2022-07-12T11:06:24;99509.00;;;20.57;55.63
47536;BME280;33278;50.826;9.030;2022-07-12T11:08:56;99507.41;;;20.56;55.49
47536;BME280;33278;50.826;9.030;2022-07-12T11:11:31;99509.81;;;20.58;55.42
47536;BME280;33278;50.826;9.030;2022-07-12T11:14:02;99510.09;;;20.56;55.25
47536;BME280;33278;50.826;9.030;2022-07-12T11:16:32;99508.50;;;20.55;55.04
47536;BME280;33278;50.826;9.030;2022-07-12T11:19:06;99497.66;;;20.55;55.33
47536;BME280;33278;50.826;9.030;2022-07-12T11:21:37;99507.41;;;20.56;55.37
47536;BME280;33278;50.826;9.030;2022-07-12T11:24:18;99498.19;;;20.57;55.48
47536;BME280;33278;50.826;9.030;2022-07-12T11:26:48;99496.25;;;20.58;55.46
47536;BME280;33278;50.826;9.030;2022-07-12T11:29:19;99496.06;;;20.54;55.24
47536;BME280;33278;50.826;9.030;2022-07-12T11:31:49;99490.16;;;20.52;54.85
47536;BME280;33278;50.826;9.030;2022-07-12T11:34:29;99490.38;;;20.55;55.26
47536;BME280;33278;50.826;9.030;2022-07-12T11:37:00;99490.38;;;20.55;55.09
47536;BME280;33278;50.826;9.030;2022-07-12T11:39:35;99487.66;;;20.55;55.32
47536;BME280;33278;50.826;9.030;2022-07-12T11:42:06;99479.22;;;20.57;55.42
47536;BME280;33278;50.826;9.030;2022-07-12T11:44:51;99477.63;;;20.56;55.08
47536;BME280;33278;50.826;9.030;2022-07-12T11:47:22;99483.03;;;20.56;55.24
47536;BME280;33278;50.826;9.030;2022-07-12T11:49:54;99471.41;;;20.55;55.39
47536;BME280;33278;50.826;9.030;2022-07-12T11:52:25;99477.63;;;20.56;55.16
47536;BME280;33278;50.826;9.030;2022-07-12T11:54:55;99468.72;;;20.55;55.51
47536;BME280;33278;50.826;9.030;2022-07-12T11:57:25;99467.09;;;20.54;55.31
47536;BME280;33278;50.826;9.030;2022-07-12T11:59:56;99462.78;;;20.53;55.05
47536;BME280;33278;50.826;9.030;2022-07-12T12:02:28;99463.28;;;20.55;55.29
47536;BME280;33278;50.826;9.030;2022-07-12T12:04:59;99470.59;;;20.55;55.15
47536;BME280;33278;50.826;9.030;2022-07-12T12:07:29;99457.88;;;20.55;55.07
47536;BME280;33278;50.826;9.030;2022-07-12T12:10:16;99448.94;;;20.55;55.23
47536;BME280;33278;50.826;9.030;2022-07-12T12:12:58;99446.53;;;20.53;54.90
47536;BME280;33278;50.826;9.030;2022-07-12T12:15:33;99446.22;;;20.55;55.33
47536;BME280;33278;50.826;9.030;2022-07-12T12:18:07;99437.84;;;20.56;55.23
47536;BME280;33278;50.826;9.030;2022-07-12T12:20:39;99445.94;;;20.56;55.26
47536;BME280;33278;50.826;9.030;2022-07-12T12:23:19;99444.63;;;20.54;54.92
47536;BME280;33278;50.826;9.030;2022-07-12T12:25:50;99437.31;;;20.54;54.73
47536;BME280;33278;50.826;9.030;2022-07-12T12:28:20;99441.13;;;20.53;54.98
47536;BME280;33278;50.826;9.030;2022-07-12T12:30:55;99430.59;;;20.52;54.66
47536;BME280;33278;50.826;9.030;2022-07-12T12:33:40;99428.38;;;20.54;54.85
47536;BME280;33278;50.826;9.030;2022-07-12T12:36:25;99421.06;;;20.54;54.96
47536;BME280;33278;50.826;9.030;2022-07-12T12:38:59;99429.72;;;20.56;55.08
47536;BME280;33278;50.826;9.030;2022-07-12T12:41:40;99427.28;;;20.55;54.84
47536;BME280;33278;50.826;9.030;2022-07-12T12:44:12;99421.38;;;20.53;54.62
47536;BME280;33278;50.826;9.030;2022-07-12T12:46:54;99420.78;;;20.56;55.00
47536;BME280;33278;50.826;9.030;2022-07-12T12:49:48;99416.75;;;20.53;54.56
47536;BME280;33278;50.826;9.030;2022-07-12T12:52:22;99415.66;;;20.54;54.71
47536;BME280;33278;50.826;9.030;2022-07-12T12:54:53;99413.47;;;20.56;54.93
47536;BME280;33278;50.826;9.030;2022-07-12T12:57:24;99412.66;;;20.56;54.77
47536;BME280;33278;50.826;9.030;2022-07-12T12:59:55;99411.84;;;20.55;54.62
47536;BME280;33278;50.826;9.030;2022-07-12T13:02:26;99404.22;;;20.58;54.93
47536;BME280;33278;50.826;9.030;2022-07-12T13:04:56;99403.72;;;20.55;54.50
47536;BME280;33278;50.826;9.030;2022-07-12T13:07:27;99411.34;;;20.53;54.11
47536;BME280;33278;50.826;9.030;2022-07-12T13:09:58;99414.84;;;20.54;54.21
47536;BME280;33278;50.826;9.030;2022-07-12T13:12:28;99414.84;;;20.54;54.23
47536;BME280;33278;50.826;9.030;2022-07-12T13:14:58;99397.81;;;20.53;54.22
47536;BME280;33278;50.826;9.030;2022-07-12T13:17:29;99400.50;;;20.53;54.11
47536;BME280;33278;50.826;9.030;2022-07-12T13:20:00;99410.75;;;20.56;54.19
47536;BME280;33278;50.826;9.030;2022-07-12T13:22:31;99409.63;;;20.58;54.42
47536;BME280;33278;50.826;9.030;2022-07-12T13:25:01;99398.81;;;20.58;54.47
47536;BME280;33278;50.826;9.030;2022-07-12T13:27:31;99398.81;;;20.58;54.47
47536;BME280;33278;50.826;9.030;2022-07-12T13:30:02;99393.19;;;20.54;53.67
47536;BME280;33278;50.826;9.030;2022-07-12T13:32:34;99399.41;;;20.54;54.03
47536;BME280;33278;50.826;9.030;2022-07-12T13:35:06;99400.22;;;20.55;54.02
47536;BME280;33278;50.826;9.030;2022-07-12T13:37:39;99399.41;;;20.54;53.57
47536;BME280;33278;50.826;9.030;2022-07-12T13:40:09;99398.00;;;20.57;54.21
47536;BME280;33278;50.826;9.030;2022-07-12T13:42:47;99393.13;;;20.59;54.38
47536;BME280;33278;50.826;9.030;2022-07-12T13:45:23;99404.72;;;20.60;54.29
47536;BME280;33278;50.826;9.030;2022-07-12T13:47:54;99404.00;;;20.54;53.39